Time;durP1;ratioP1;P1;durP2;ratioP2;P2;SDS_P1;SDS_P2;PMS_P1;PMS_P2;Temp;Humidity;BMP_temperature;BMP_pressure;BME280_temperature;BME280_humidity;BME280_pressure;Samples;Min_cycle;Max_cycle;Signal;HPM_P1;HPM_P2
2022/10/06 00:02:18;;;;;;;2.17;1.00;;;;;;;;;;4999467;28;20047;-61
2022/10/06 00:04:44;;;;;;;1.73;0.80;;;;;;;;;;5018059;28;20062;-60
2022/10/06 00:07:10;;;;;;;2.00;0.60;;;;;;;;;;5015475;28;20038;-61
2022/10/06 00:09:35;;;;;;;1.13;0.60;;;;;;;;;;5017327;28;20121;-61
2022/10/06 00:12:00;;;;;;;2.55;0.70;;;;;;;;;;5015430;28;20133;-61
2022/10/06 00:14:26;;;;;;;1.42;0.55;;;;;;;;;;5006727;28;20462;-61
2022/10/06 00:16:51;;;;;;;1.15;0.55;;;;;;;;;;5009541;28;20394;-60
2022/10/06 00:19:17;;;;;;;1.27;0.60;;;;;;;;;;5021467;28;20044;-61
2022/10/06 00:21:42;;;;;;;1.90;0.70;;;;;;;;;;5003177;28;20038;-61
2022/10/06 00:24:08;;;;;;;2.47;0.80;;;;;;;;;;5015568;28;20045;-61
2022/10/06 00:26:33;;;;;;;1.40;0.60;;;;;;;;;;5007556;28;20049;-61
2022/10/06 00:28:59;;;;;;;2.33;0.90;;;;;;;;;;5015821;28;20029;-61
2022/10/06 00:31:25;;;;;;;1.88;0.82;;;;;;;;;;5017537;28;20047;-61
2022/10/06 00:33:50;;;;;;;1.02;0.50;;;;;;;;;;5017181;28;20041;-61
2022/10/06 00:36:16;;;;;;;1.75;0.60;;;;;;;;;;5006520;28;20116;-61
2022/10/06 00:38:41;;;;;;;1.85;0.68;;;;;;;;;;5014859;28;20112;-60
2022/10/06 00:41:10;;;;;;;2.17;0.80;;;;;;;;;;5011187;28;20041;-61
2022/10/06 00:43:39;;;;;;;2.85;1.15;;;;;;;;;;5012025;28;20029;-61
2022/10/06 00:46:06;;;;;;;1.27;0.60;;;;;;;;;;5011527;28;20037;-61
2022/10/06 00:48:32;;;;;;;2.65;0.57;;;;;;;;;;5009802;28;20061;-61
2022/10/06 00:50:58;;;;;;;1.25;0.50;;;;;;;;;;5012079;28;20062;-60
2022/10/06 00:53:28;;;;;;;0.90;0.50;;;;;;;;;;5015612;28;20533;-60
2022/10/06 00:55:54;;;;;;;3.22;0.73;;;;;;;;;;5013349;28;20126;-61
2022/10/06 00:58:20;;;;;;;1.00;0.60;;;;;;;;;;5014625;28;20117;-61
2022/10/06 01:00:46;;;;;;;1.17;0.60;;;;;;;;;;5014597;28;20038;-61
2022/10/06 01:03:25;;;;;;;1.45;0.70;;;;;;;;;;5013559;28;20030;-61
2022/10/06 01:05:52;;;;;;;2.13;0.60;;;;;;;;;;5011986;28;20232;-61
2022/10/06 01:08:18;;;;;;;2.47;0.80;;;;;;;;;;5013399;28;20083;-61
2022/10/06 01:10:43;;;;;;;1.17;0.50;;;;;;;;;;5012127;28;20029;-61
2022/10/06 01:13:10;;;;;;;2.03;0.60;;;;;;;;;;5016599;28;20477;-61
2022/10/06 01:15:38;;;;;;;1.88;0.68;;;;;;;;;;5015675;28;20444;-61
2022/10/06 01:18:08;;;;;;;1.75;0.75;;;;;;;;;;5007696;28;20481;-61
2022/10/06 01:20:34;;;;;;;1.10;0.52;;;;;;;;;;5027829;28;20046;-60
2022/10/06 01:23:04;;;;;;;1.23;0.50;;;;;;;;;;5013332;28;20042;-61
2022/10/06 01:25:31;;;;;;;1.02;0.50;;;;;;;;;;5013274;28;20468;-61
2022/10/06 01:27:57;;;;;;;2.35;0.60;;;;;;;;;;5016500;28;20042;-61
2022/10/06 01:30:28;;;;;;;2.60;0.85;;;;;;;;;;5032514;28;20038;-61
2022/10/06 01:32:54;;;;;;;0.80;0.50;;;;;;;;;;5012805;28;20392;-61
2022/10/06 01:35:19;;;;;;;1.05;0.60;;;;;;;;;;5009190;28;20034;-60
2022/10/06 01:37:44;;;;;;;2.00;0.70;;;;;;;;;;5013440;28;20042;-61
2022/10/06 01:40:10;;;;;;;2.17;0.65;;;;;;;;;;5013610;28;20041;-60
2022/10/06 01:42:36;;;;;;;1.42;0.60;;;;;;;;;;5013970;28;20127;-61
2022/10/06 01:45:03;;;;;;;1.23;0.70;;;;;;;;;;5016413;28;20046;-61
2022/10/06 01:47:28;;;;;;;1.27;0.63;;;;;;;;;;5008242;28;20397;-61
2022/10/06 01:49:54;;;;;;;1.67;0.60;;;;;;;;;;5016999;28;20042;-61
2022/10/06 01:52:19;;;;;;;1.45;0.85;;;;;;;;;;5016940;28;20474;-61
2022/10/06 01:54:45;;;;;;;0.85;0.60;;;;;;;;;;5017510;28;20061;-60
2022/10/06 01:57:10;;;;;;;1.58;0.60;;;;;;;;;;5019856;28;20026;-61
2022/10/06 01:59:36;;;;;;;0.70;0.45;;;;;;;;;;5013439;28;20050;-61
2022/10/06 02:02:03;;;;;;;0.80;0.50;;;;;;;;;;5017987;28;20437;-61
2022/10/06 02:04:29;;;;;;;2.97;0.70;;;;;;;;;;5022159;28;20056;-61
2022/10/06 02:06:54;;;;;;;0.80;0.35;;;;;;;;;;5005284;28;20478;-61
2022/10/06 02:09:22;;;;;;;1.50;0.63;;;;;;;;;;5008242;28;20031;-61
2022/10/06 02:11:48;;;;;;;0.95;0.43;;;;;;;;;;5001459;28;20121;-61
2022/10/06 02:14:14;;;;;;;1.10;0.57;;;;;;;;;;5015564;28;20552;-61
2022/10/06 02:16:40;;;;;;;2.00;0.80;;;;;;;;;;5017481;28;20038;-60
2022/10/06 02:19:05;;;;;;;1.08;0.52;;;;;;;;;;5015127;28;20116;-61
2022/10/06 02:21:31;;;;;;;1.17;0.60;;;;;;;;;;5013331;28;20034;-61
2022/10/06 02:23:56;;;;;;;1.05;0.55;;;;;;;;;;5016757;28;20058;-61
2022/10/06 02:26:22;;;;;;;1.25;0.60;;;;;;;;;;5013170;28;20038;-60
2022/10/06 02:28:48;;;;;;;1.10;0.50;;;;;;;;;;5020716;28;20128;-61
2022/10/06 02:31:15;;;;;;;2.00;0.70;;;;;;;;;;5011739;28;20060;-61
2022/10/06 02:33:40;;;;;;;0.68;0.43;;;;;;;;;;5018501;28;20073;-60
2022/10/06 02:36:07;;;;;;;0.90;0.45;;;;;;;;;;5016080;28;20398;-61
2022/10/06 02:38:33;;;;;;;1.00;0.50;;;;;;;;;;5016300;28;20091;-61
2022/10/06 02:41:00;;;;;;;1.33;0.80;;;;;;;;;;5013990;28;20125;-61
2022/10/06 02:43:30;;;;;;;1.00;0.52;;;;;;;;;;5017892;28;20034;-61
2022/10/06 02:46:01;;;;;;;1.58;0.80;;;;;;;;;;5018895;28;20044;-61
2022/10/06 02:48:27;;;;;;;2.30;0.73;;;;;;;;;;5019929;28;20095;-61
2022/10/06 02:51:01;;;;;;;0.73;0.40;;;;;;;;;;5016626;28;20030;-60
2022/10/06 02:53:28;;;;;;;0.82;0.50;;;;;;;;;;5019175;28;20048;-61
2022/10/06 02:56:02;;;;;;;1.23;0.70;;;;;;;;;;5015126;28;20065;-61
2022/10/06 02:58:28;;;;;;;0.85;0.43;;;;;;;;;;5025125;28;20037;-61
2022/10/06 03:01:03;;;;;;;1.30;0.60;;;;;;;;;;5016269;28;20065;-60
2022/10/06 03:03:30;;;;;;;0.95;0.50;;;;;;;;;;5016771;28;20045;-61
2022/10/06 03:06:24;;;;;;;0.98;0.50;;;;;;;;;;5008419;28;20081;-61
2022/10/06 03:08:54;;;;;;;1.65;0.60;;;;;;;;;;5014513;28;20038;-61
2022/10/06 03:11:21;;;;;;;1.50;0.70;;;;;;;;;;5007180;28;20512;-61
2022/10/06 03:13:48;;;;;;;1.58;0.52;;;;;;;;;;5015309;28;20022;-60
2022/10/06 03:16:43;;;;;;;0.50;0.38;;;;;;;;;;5008064;28;20049;-61
2022/10/06 03:19:09;;;;;;;1.48;0.45;;;;;;;;;;5014575;28;20113;-60
2022/10/06 03:21:37;;;;;;;1.05;0.47;;;;;;;;;;5014863;28;20041;-61
2022/10/06 03:24:03;;;;;;;2.08;0.60;;;;;;;;;;5016509;28;20052;-61
2022/10/06 03:26:33;;;;;;;1.48;0.50;;;;;;;;;;5015056;28;20088;-61
2022/10/06 03:28:59;;;;;;;2.95;0.60;;;;;;;;;;5021643;28;20088;-61
2022/10/06 03:31:25;;;;;;;1.00;0.50;;;;;;;;;;5014830;28;20037;-61
2022/10/06 03:33:51;;;;;;;1.27;0.68;;;;;;;;;;5014125;28;20485;-60
2022/10/06 03:36:19;;;;;;;2.92;0.60;;;;;;;;;;5001426;28;20050;-61
2022/10/06 03:38:44;;;;;;;1.33;0.52;;;;;;;;;;5005437;28;20096;-61
2022/10/06 03:41:11;;;;;;;1.10;0.52;;;;;;;;;;5002959;28;20038;-61
2022/10/06 03:43:38;;;;;;;0.70;0.40;;;;;;;;;;5004338;28;20042;-61
2022/10/06 03:46:05;;;;;;;1.15;0.52;;;;;;;;;;5013160;28;20041;-61
2022/10/06 03:48:32;;;;;;;0.85;0.50;;;;;;;;;;5019656;28;20033;-61
2022/10/06 03:51:00;;;;;;;2.10;0.70;;;;;;;;;;5007723;28;20180;-61
2022/10/06 03:53:27;;;;;;;1.55;0.63;;;;;;;;;;5015839;28;20041;-61
2022/10/06 03:56:02;;;;;;;1.50;0.57;;;;;;;;;;5014161;28;20496;-61
2022/10/06 03:58:29;;;;;;;3.72;0.63;;;;;;;;;;5020229;28;20090;-61
2022/10/06 04:01:13;;;;;;;1.63;0.50;;;;;;;;;;5017750;28;20029;-61
2022/10/06 04:03:39;;;;;;;0.63;0.40;;;;;;;;;;5007043;28;20048;-61
2022/10/06 04:06:06;;;;;;;0.63;0.40;;;;;;;;;;5013385;28;20050;-61
2022/10/06 04:08:33;;;;;;;0.60;0.40;;;;;;;;;;5018167;28;20034;-61
2022/10/06 04:11:06;;;;;;;1.08;0.50;;;;;;;;;;5001299;28;20046;-61
2022/10/06 04:13:32;;;;;;;1.08;0.55;;;;;;;;;;5014367;28;20038;-61
2022/10/06 04:15:57;;;;;;;1.52;0.50;;;;;;;;;;5007114;28;20045;-61
2022/10/06 04:18:23;;;;;;;1.95;0.70;;;;;;;;;;5016387;28;20041;-61
2022/10/06 04:20:48;;;;;;;0.45;0.32;;;;;;;;;;5006164;28;20470;-61
2022/10/06 04:23:15;;;;;;;0.52;0.40;;;;;;;;;;4999712;28;20457;-61
2022/10/06 04:25:40;;;;;;;1.10;0.47;;;;;;;;;;5014052;28;20034;-62
2022/10/06 04:28:06;;;;;;;0.93;0.50;;;;;;;;;;5016675;28;20044;-61
2022/10/06 04:30:31;;;;;;;4.20;0.60;;;;;;;;;;5016128;28;20038;-61
2022/10/06 04:32:56;;;;;;;1.40;0.45;;;;;;;;;;5006357;28;20116;-61
2022/10/06 04:35:22;;;;;;;1.45;0.50;;;;;;;;;;5015222;28;20046;-61
2022/10/06 04:37:48;;;;;;;1.08;0.55;;;;;;;;;;5005419;28;20053;-61
2022/10/06 04:40:14;;;;;;;0.70;0.50;;;;;;;;;;5014624;28;20091;-60
2022/10/06 04:42:40;;;;;;;0.63;0.38;;;;;;;;;;5014775;28;20037;-61
2022/10/06 04:45:06;;;;;;;0.68;0.43;;;;;;;;;;5009471;28;20434;-61
2022/10/06 04:47:32;;;;;;;0.95;0.55;;;;;;;;;;5010044;28;20041;-61
2022/10/06 04:49:57;;;;;;;1.27;0.60;;;;;;;;;;5013938;28;20042;-61
2022/10/06 04:52:23;;;;;;;1.88;0.52;;;;;;;;;;5014455;28;20057;-62
2022/10/06 04:54:48;;;;;;;0.95;0.43;;;;;;;;;;5014003;28;20080;-61
2022/10/06 04:57:14;;;;;;;1.45;0.60;;;;;;;;;;5012737;28;20041;-61
2022/10/06 05:02:23;;;;;;;1.05;0.50;;;;;;;;;;5014229;28;20093;-61
2022/10/06 05:04:48;;;;;;;2.22;0.57;;;;;;;;;;5010591;28;20057;-60
2022/10/06 05:07:14;;;;;;;2.97;0.60;;;;;;;;;;5005865;28;20120;-61
2022/10/06 05:09:39;;;;;;;0.93;0.45;;;;;;;;;;5020061;28;20087;-61
2022/10/06 05:12:05;;;;;;;1.25;0.52;;;;;;;;;;4998239;28;20494;-61
2022/10/06 05:14:32;;;;;;;1.30;0.60;;;;;;;;;;5014655;28;20030;-61
2022/10/06 05:16:57;;;;;;;1.00;0.50;;;;;;;;;;5014200;28;20029;-61
2022/10/06 05:19:23;;;;;;;1.02;0.50;;;;;;;;;;5012000;28;20044;-60
2022/10/06 05:21:48;;;;;;;1.80;0.70;;;;;;;;;;5002737;28;20045;-61
2022/10/06 05:24:13;;;;;;;1.15;0.40;;;;;;;;;;5007435;28;20073;-61
2022/10/06 05:26:39;;;;;;;1.60;0.50;;;;;;;;;;5021590;28;20045;-61
2022/10/06 05:29:04;;;;;;;0.70;0.40;;;;;;;;;;5015769;28;20422;-61
2022/10/06 05:31:32;;;;;;;0.80;0.50;;;;;;;;;;5009920;28;20034;-60
2022/10/06 05:33:58;;;;;;;1.02;0.50;;;;;;;;;;5013259;28;20147;-61
2022/10/06 05:36:27;;;;;;;0.95;0.50;;;;;;;;;;5011681;28;20037;-61
2022/10/06 05:38:53;;;;;;;1.25;0.50;;;;;;;;;;5009144;28;20034;-61
2022/10/06 05:41:22;;;;;;;0.77;0.50;;;;;;;;;;5021851;28;20060;-60
2022/10/06 05:43:48;;;;;;;1.17;0.60;;;;;;;;;;5015434;28;20057;-61
2022/10/06 05:46:18;;;;;;;0.93;0.50;;;;;;;;;;5005975;28;20470;-61
2022/10/06 05:48:48;;;;;;;1.00;0.50;;;;;;;;;;5012927;28;20046;-61
2022/10/06 05:51:14;;;;;;;1.85;0.70;;;;;;;;;;5016161;28;20046;-61
2022/10/06 05:53:40;;;;;;;0.95;0.50;;;;;;;;;;5004787;28;20038;-61
2022/10/06 05:56:11;;;;;;;0.82;0.40;;;;;;;;;;5014016;28;20053;-61
2022/10/06 05:58:38;;;;;;;1.33;0.70;;;;;;;;;;5014230;28;20034;-61
2022/10/06 06:01:26;;;;;;;0.60;0.40;;;;;;;;;;5014269;28;20052;-61
2022/10/06 06:03:53;;;;;;;1.35;0.50;;;;;;;;;;5012904;28;20052;-61
2022/10/06 06:06:23;;;;;;;1.25;0.50;;;;;;;;;;5007669;28;20129;-61
2022/10/06 06:08:55;;;;;;;0.70;0.50;;;;;;;;;;5001367;28;20034;-60
2022/10/06 06:11:27;;;;;;;1.92;0.60;;;;;;;;;;4999048;28;20482;-61
2022/10/06 06:13:58;;;;;;;0.32;0.30;;;;;;;;;;5001361;28;20092;-61
2022/10/06 06:16:24;;;;;;;1.90;0.63;;;;;;;;;;4997996;28;20133;-61
2022/10/06 06:18:50;;;;;;;0.82;0.60;;;;;;;;;;5009289;28;20029;-60
2022/10/06 06:21:15;;;;;;;1.60;0.68;;;;;;;;;;5012838;28;20034;-61
2022/10/06 06:23:45;;;;;;;0.77;0.47;;;;;;;;;;5008661;28;20049;-61
2022/10/06 06:26:13;;;;;;;1.35;0.50;;;;;;;;;;5010215;28;20030;-61
2022/10/06 06:28:40;;;;;;;0.57;0.47;;;;;;;;;;5012659;28;20030;-59
2022/10/06 06:31:11;;;;;;;0.60;0.40;;;;;;;;;;5023282;28;20056;-64
2022/10/06 06:33:38;;;;;;;2.28;0.60;;;;;;;;;;5031752;28;20025;-58
2022/10/06 06:36:14;;;;;;;3.97;0.55;;;;;;;;;;5016311;28;20037;-62
2022/10/06 06:38:40;;;;;;;0.47;0.40;;;;;;;;;;5009716;28;20050;-62
2022/10/06 06:41:20;;;;;;;1.02;0.60;;;;;;;;;;5013780;28;20091;-62
2022/10/06 06:43:47;;;;;;;0.93;0.50;;;;;;;;;;5015484;28;20042;-61
2022/10/06 06:46:15;;;;;;;0.98;0.40;;;;;;;;;;5018794;28;20038;-62
2022/10/06 06:48:41;;;;;;;1.05;0.50;;;;;;;;;;5015690;28;20121;-62
2022/10/06 06:51:09;;;;;;;0.82;0.40;;;;;;;;;;5010748;28;20126;-62
2022/10/06 06:53:35;;;;;;;0.85;0.50;;;;;;;;;;5001661;28;20029;-62
2022/10/06 06:56:00;;;;;;;1.55;0.60;;;;;;;;;;5002338;28;20035;-62
2022/10/06 06:58:26;;;;;;;2.42;0.68;;;;;;;;;;5009121;28;20045;-63
2022/10/06 07:00:51;;;;;;;1.17;0.60;;;;;;;;;;5001388;28;20038;-62
2022/10/06 07:03:19;;;;;;;0.75;0.50;;;;;;;;;;5011175;28;20105;-62
2022/10/06 07:05:45;;;;;;;3.10;0.60;;;;;;;;;;5002070;28;20050;-62
2022/10/06 07:08:13;;;;;;;1.15;0.57;;;;;;;;;;5015940;28;20038;-62
2022/10/06 07:10:39;;;;;;;0.57;0.40;;;;;;;;;;5012139;28;20405;-58
2022/10/06 07:13:05;;;;;;;1.65;0.50;;;;;;;;;;5025936;28;20470;-61
2022/10/06 07:26:29;;;;;;;1.70;0.68;;;;;;;;;;5009429;28;20150;-64
2022/10/06 07:28:58;;;;;;;3.28;0.50;;;;;;;;;;4996497;28;20042;-65
2022/10/06 07:31:28;;;;;;;1.00;0.50;;;;;;;;;;4998948;28;20050;-65
2022/10/06 07:33:54;;;;;;;0.35;0.35;;;;;;;;;;5006003;28;20037;-66
2022/10/06 07:36:20;;;;;;;2.30;0.50;;;;;;;;;;5014753;28;20366;-63
2022/10/06 07:38:46;;;;;;;1.13;0.50;;;;;;;;;;5012246;28;20042;-64
2022/10/06 07:41:12;;;;;;;1.00;0.50;;;;;;;;;;5013652;28;20030;-64
2022/10/06 07:43:37;;;;;;;3.63;0.65;;;;;;;;;;5011072;28;20042;-65
2022/10/06 07:46:02;;;;;;;1.77;0.60;;;;;;;;;;5006616;28;20034;-64
2022/10/06 07:48:28;;;;;;;1.63;0.50;;;;;;;;;;5007480;28;20084;-62
2022/10/06 07:50:53;;;;;;;0.85;0.50;;;;;;;;;;5013376;28;20923;-62
2022/10/06 07:53:18;;;;;;;3.65;0.60;;;;;;;;;;5001568;28;20077;-64
2022/10/06 07:55:46;;;;;;;1.38;0.55;;;;;;;;;;4999932;28;20041;-67
2022/10/06 07:58:16;;;;;;;2.08;0.60;;;;;;;;;;5009639;28;20056;-63
2022/10/06 08:00:43;;;;;;;0.70;0.40;;;;;;;;;;5011376;28;20117;-64
2022/10/06 08:03:09;;;;;;;1.10;0.50;;;;;;;;;;5010449;28;20377;-64
2022/10/06 08:05:35;;;;;;;1.40;0.70;;;;;;;;;;5010961;28;20050;-66
2022/10/06 08:08:00;;;;;;;0.90;0.50;;;;;;;;;;5010999;28;20062;-63
2022/10/06 08:10:26;;;;;;;1.15;0.57;;;;;;;;;;5006966;28;20029;-66
2022/10/06 08:12:51;;;;;;;4.00;0.40;;;;;;;;;;5005124;28;20046;-67
2022/10/06 08:15:17;;;;;;;2.63;0.70;;;;;;;;;;5005842;28;20037;-66
2022/10/06 08:17:43;;;;;;;2.25;0.70;;;;;;;;;;4998997;28;20030;-69
2022/10/06 08:20:10;;;;;;;3.33;0.80;;;;;;;;;;5005287;28;20454;-68
2022/10/06 08:22:37;;;;;;;11.13;1.30;;;;;;;;;;5001583;28;20108;-63
2022/10/06 08:25:03;;;;;;;8.65;1.15;;;;;;;;;;5008992;28;20053;-61
2022/10/06 08:27:29;;;;;;;5.75;0.70;;;;;;;;;;5004652;28;20402;-62
2022/10/06 08:29:55;;;;;;;1.08;0.50;;;;;;;;;;5009059;28;20045;-62
2022/10/06 08:32:22;;;;;;;4.50;0.68;;;;;;;;;;5011126;28;20038;-72
2022/10/06 08:34:48;;;;;;;4.82;0.75;;;;;;;;;;5012275;28;20398;-60
2022/10/06 08:37:15;;;;;;;2.28;0.70;;;;;;;;;;5012900;28;20038;-60
2022/10/06 08:39:41;;;;;;;2.33;0.70;;;;;;;;;;5013483;28;20496;-63
2022/10/06 08:42:17;;;;;;;3.55;0.80;;;;;;;;;;5012373;28;20037;-63
2022/10/06 08:44:50;;;;;;;7.03;1.15;;;;;;;;;;5010319;28;20396;-64
2022/10/06 08:47:18;;;;;;;7.55;0.82;;;;;;;;;;5003340;28;20046;-60
2022/10/06 08:49:45;;;;;;;19.50;1.20;;;;;;;;;;5016327;28;20038;-61
2022/10/06 08:52:19;;;;;;;12.55;1.73;;;;;;;;;;4990197;28;20508;-61
2022/10/06 08:54:48;;;;;;;;;;;;;;;;;;5006717;28;20080;-61
2022/10/06 08:57:13;;;;;;;2.60;0.80;;;;;;;;;;5001806;28;19926;-61
2022/10/06 08:59:41;;;;;;;5.03;0.70;;;;;;;;;;4999130;28;20360;-61
2022/10/06 09:02:31;;;;;;;3.65;1.00;;;;;;;;;;5014317;28;20037;-61
2022/10/06 09:05:00;;;;;;;8.65;1.10;;;;;;;;;;5012635;28;20074;-61
2022/10/06 09:07:35;;;;;;;4.05;0.90;;;;;;;;;;4996181;28;20049;-60
2022/10/06 09:10:15;;;;;;;6.50;0.90;;;;;;;;;;5009154;28;20037;-58
2022/10/06 09:12:45;;;;;;;6.22;0.80;;;;;;;;;;5022394;28;20041;-61
2022/10/06 09:15:13;;;;;;;5.57;1.95;;;;;;;;;;5008750;28;20046;-76
2022/10/06 09:17:45;;;;;;;4.55;0.80;;;;;;;;;;5005715;28;20046;-62
2022/10/06 09:20:29;;;;;;;5.78;0.75;;;;;;;;;;5005804;28;20046;-61
2022/10/06 09:22:55;;;;;;;3.38;0.80;;;;;;;;;;4999779;28;20413;-64
2022/10/06 09:25:25;;;;;;;13.70;1.10;;;;;;;;;;5009148;28;20037;-60
2022/10/06 09:27:54;;;;;;;6.80;1.20;;;;;;;;;;5009197;28;20565;-60
2022/10/06 09:30:19;;;;;;;6.85;0.90;;;;;;;;;;5008920;28;20485;-60
2022/10/06 09:32:47;;;;;;;6.43;1.15;;;;;;;;;;4989702;28;20109;-60
2022/10/06 09:35:20;;;;;;;3.38;0.90;;;;;;;;;;5009170;28;20572;-60
2022/10/06 09:38:03;;;;;;;;;;;;;;;;;;5002151;28;20081;-60
2022/10/06 09:40:48;;;;;;;6.13;1.20;;;;;;;;;;5001649;28;20373;-60
2022/10/06 09:43:24;;;;;;;6.25;1.10;;;;;;;;;;5008768;28;20041;-59
2022/10/06 09:45:53;;;;;;;2.92;1.00;;;;;;;;;;5031284;28;20034;-60
2022/10/06 09:48:24;;;;;;;3.95;1.00;;;;;;;;;;5008764;28;20485;-60
2022/10/06 09:51:08;;;;;;;5.35;0.98;;;;;;;;;;5008445;28;20393;-60
2022/10/06 09:53:34;;;;;;;1.90;0.70;;;;;;;;;;5005553;28;20050;-60
2022/10/06 09:56:01;;;;;;;4.28;1.08;;;;;;;;;;4997997;28;20537;-60
2022/10/06 09:58:36;;;;;;;3.33;1.05;;;;;;;;;;5000073;28;20860;-62
2022/10/06 10:01:07;;;;;;;5.50;1.02;;;;;;;;;;5010209;28;20076;-61
2022/10/06 10:03:44;;;;;;;3.58;0.98;;;;;;;;;;4996203;28;20038;-61
2022/10/06 10:06:20;;;;;;;5.50;1.10;;;;;;;;;;5013414;28;20053;-61
2022/10/06 10:08:46;;;;;;;4.47;1.20;;;;;;;;;;5013127;28;20045;-61
2022/10/06 10:14:03;;;;;;;5.40;1.20;;;;;;;;;;5020034;28;20096;-62
2022/10/06 10:16:33;;;;;;;7.00;1.27;;;;;;;;;;5008948;28;20041;-61
2022/10/06 10:19:00;;;;;;;4.90;1.13;;;;;;;;;;5012728;28;20049;-62
2022/10/06 10:21:33;;;;;;;3.67;1.10;;;;;;;;;;5013271;28;20026;-61
2022/10/06 10:24:01;;;;;;;2.58;0.90;;;;;;;;;;5006069;28;20104;-61
2022/10/06 10:26:34;;;;;;;12.68;1.20;;;;;;;;;;5005168;28;20037;-62
2022/10/06 10:29:00;;;;;;;6.88;1.20;;;;;;;;;;5011715;28;20048;-63
2022/10/06 10:31:46;;;;;;;4.47;1.33;;;;;;;;;;5012552;28;20120;-61
2022/10/06 10:34:40;;;;;;;4.45;1.00;;;;;;;;;;5010524;28;20044;-62
2022/10/06 10:37:22;;;;;;;5.82;1.10;;;;;;;;;;5008741;28;20040;-62
2022/10/06 10:39:53;;;;;;;5.68;1.30;;;;;;;;;;5010064;28;20131;-66
2022/10/06 10:42:30;;;;;;;5.25;1.33;;;;;;;;;;4999696;28;20033;-65
2022/10/06 10:45:00;;;;;;;6.53;1.90;;;;;;;;;;5012189;28;20048;-61
2022/10/06 10:47:30;;;;;;;2.13;1.05;;;;;;;;;;4994554;28;20041;-61
2022/10/06 10:50:15;;;;;;;4.80;1.88;;;;;;;;;;5002137;28;20033;-61
2022/10/06 10:52:41;;;;;;;4.75;1.30;;;;;;;;;;5001366;28;20037;-61
2022/10/06 10:55:25;;;;;;;7.10;1.70;;;;;;;;;;5010600;28;20045;-61
2022/10/06 10:57:54;;;;;;;6.55;1.15;;;;;;;;;;5011813;28;20394;-60
2022/10/06 11:00:24;;;;;;;5.43;1.20;;;;;;;;;;5009578;28;20037;-60
2022/10/06 11:02:52;;;;;;;4.45;1.10;;;;;;;;;;5012033;28;20038;-60
2022/10/06 11:05:35;;;;;;;5.60;1.42;;;;;;;;;;5011606;28;20124;-61
2022/10/06 11:08:39;;;;;;;7.50;1.50;;;;;;;;;;5011629;28;20038;-61
2022/10/06 11:11:21;;;;;;;2.97;0.98;;;;;;;;;;5000444;28;20053;-62
2022/10/06 11:13:48;;;;;;;9.10;1.30;;;;;;;;;;5000253;28;20454;-62
2022/10/06 11:16:35;;;;;;;5.95;1.40;;;;;;;;;;5003328;28;20044;-62
2022/10/06 11:19:14;;;;;;;4.65;1.30;;;;;;;;;;5006385;28;20254;-62
2022/10/06 11:22:12;;;;;;;4.82;1.50;;;;;;;;;;5028076;28;20073;-62
2022/10/06 11:24:37;;;;;;;4.18;1.13;;;;;;;;;;5011823;28;20067;-62
2022/10/06 11:27:10;;;;;;;2.97;1.00;;;;;;;;;;5011971;28;20968;-62
2022/10/06 11:30:02;;;;;;;4.00;1.02;;;;;;;;;;5003735;28;20061;-62
2022/10/06 11:32:36;;;;;;;3.17;1.10;;;;;;;;;;5002305;28;20050;-62
2022/10/06 11:35:26;;;;;;;3.45;0.90;;;;;;;;;;5000089;28;20030;-62
2022/10/06 11:38:06;;;;;;;4.75;1.17;;;;;;;;;;4995238;28;20061;-62
2022/10/06 11:41:07;;;;;;;6.20;1.35;;;;;;;;;;5010021;28;20042;-62
2022/10/06 11:44:02;;;;;;;3.53;1.23;;;;;;;;;;5000189;28;20138;-62
2022/10/06 11:46:37;;;;;;;3.72;1.10;;;;;;;;;;4998566;28;20037;-62
2022/10/06 11:49:27;;;;;;;4.45;1.10;;;;;;;;;;5010321;28;20054;-62
2022/10/06 11:51:56;;;;;;;5.63;0.90;;;;;;;;;;5009537;28;20485;-62
2022/10/06 11:54:44;;;;;;;4.20;1.00;;;;;;;;;;5010910;28;20065;-62
2022/10/06 11:57:22;;;;;;;4.47;1.27;;;;;;;;;;5010202;28;20076;-62
2022/10/06 11:59:49;;;;;;;9.73;1.10;;;;;;;;;;5011076;28;20109;-62
2022/10/06 12:02:33;;;;;;;3.88;1.10;;;;;;;;;;5010925;28;20115;-62
2022/10/06 12:05:14;;;;;;;4.93;1.20;;;;;;;;;;5008490;28;20050;-62
2022/10/06 12:07:54;;;;;;;5.60;1.05;;;;;;;;;;5006992;28;20304;-59
2022/10/06 12:10:26;;;;;;;8.43;1.35;;;;;;;;;;5006447;28;20650;-59
2022/10/06 12:13:09;;;;;;;7.88;1.60;;;;;;;;;;5008665;28;20033;-62
2022/10/06 12:15:53;;;;;;;8.63;1.40;;;;;;;;;;5011137;28;20073;-59
2022/10/06 12:18:37;;;;;;;4.38;1.23;;;;;;;;;;4992114;28;20026;-59
2022/10/06 12:21:23;;;;;;;4.68;1.15;;;;;;;;;;4996851;28;20396;-59
2022/10/06 12:23:52;;;;;;;7.05;1.05;;;;;;;;;;5010902;28;20034;-59
2022/10/06 12:26:36;;;;;;;5.93;1.33;;;;;;;;;;5010201;28;20048;-60
2022/10/06 12:29:20;;;;;;;3.67;1.20;;;;;;;;;;5014903;28;20060;-59
2022/10/06 12:31:51;;;;;;;4.72;1.30;;;;;;;;;;5004217;28;20037;-58
2022/10/06 12:34:38;;;;;;;5.32;0.90;;;;;;;;;;4996001;28;20454;-58
2022/10/06 12:37:28;;;;;;;6.10;1.17;;;;;;;;;;5009465;28;20084;-58
2022/10/06 12:40:34;;;;;;;3.35;1.08;;;;;;;;;;5001499;28;20057;-58
2022/10/06 12:43:21;;;;;;;5.35;1.27;;;;;;;;;;5010617;28;20038;-58
2022/10/06 12:45:58;;;;;;;3.40;1.00;;;;;;;;;;5010457;28;20362;-58
2022/10/06 12:48:27;;;;;;;2.42;1.02;;;;;;;;;;5010625;28;20041;-58
2022/10/06 12:50:57;;;;;;;6.72;1.10;;;;;;;;;;5010059;28;20038;-58
2022/10/06 12:53:27;;;;;;;4.85;1.00;;;;;;;;;;5009612;28;20128;-59
2022/10/06 12:55:55;;;;;;;3.55;1.10;;;;;;;;;;5009542;28;20507;-58
2022/10/06 12:58:32;;;;;;;3.63;1.05;;;;;;;;;;5010286;28;20081;-58
2022/10/06 13:01:06;;;;;;;3.60;1.00;;;;;;;;;;5004963;28;20043;-58
2022/10/06 13:03:32;;;;;;;3.08;1.00;;;;;;;;;;5010039;28;20129;-58
2022/10/06 13:06:04;;;;;;;7.10;1.10;;;;;;;;;;5014553;28;20132;-59
2022/10/06 13:08:32;;;;;;;6.03;0.93;;;;;;;;;;5010358;28;20052;-59
2022/10/06 13:11:25;;;;;;;2.08;0.75;;;;;;;;;;5009780;28;20065;-60
2022/10/06 13:13:58;;;;;;;6.75;1.45;;;;;;;;;;5010215;28;20120;-59
2022/10/06 13:16:38;;;;;;;5.47;1.20;;;;;;;;;;5009476;28;20042;-60
2022/10/06 13:19:03;;;;;;;5.63;1.40;;;;;;;;;;5004284;28;20543;-60
2022/10/06 13:21:29;;;;;;;4.07;1.10;;;;;;;;;;5008490;28;20050;-59
2022/10/06 13:23:55;;;;;;;5.70;1.00;;;;;;;;;;5001048;28;20052;-60
2022/10/06 13:26:22;;;;;;;3.97;1.00;;;;;;;;;;5008313;28;20021;-62
2022/10/06 13:28:53;;;;;;;2.97;0.90;;;;;;;;;;5008901;28;20084;-60
2022/10/06 13:31:30;;;;;;;3.40;1.17;;;;;;;;;;5002098;28;20038;-60
2022/10/06 13:34:11;;;;;;;3.72;1.25;;;;;;;;;;5001170;28;20041;-60
2022/10/06 13:36:38;;;;;;;4.95;1.58;;;;;;;;;;5004277;28;20042;-60
2022/10/06 13:39:05;;;;;;;3.33;1.20;;;;;;;;;;5009850;28;20042;-59
2022/10/06 13:41:35;;;;;;;3.08;1.27;;;;;;;;;;5010740;28;20930;-60
2022/10/06 13:44:04;;;;;;;2.90;1.17;;;;;;;;;;5013016;28;20113;-60
2022/10/06 13:46:31;;;;;;;11.27;1.02;;;;;;;;;;5012948;28;20034;-60
2022/10/06 13:49:08;;;;;;;5.28;1.10;;;;;;;;;;5008902;28;20462;-60
2022/10/06 13:51:33;;;;;;;4.55;1.30;;;;;;;;;;4997107;28;20042;-59
2022/10/06 13:54:04;;;;;;;3.05;1.17;;;;;;;;;;5011788;28;20108;-60
2022/10/06 13:56:36;;;;;;;3.78;1.20;;;;;;;;;;5002275;28;20045;-60
2022/10/06 13:59:26;;;;;;;3.38;1.08;;;;;;;;;;5000441;28;20375;-60
2022/10/06 14:01:52;;;;;;;3.95;1.30;;;;;;;;;;5010705;28;20041;-60
2022/10/06 14:04:18;;;;;;;3.75;1.00;;;;;;;;;;4995819;28;20073;-59
2022/10/06 14:06:50;;;;;;;4.47;1.08;;;;;;;;;;4998409;28;20127;-60
2022/10/06 14:09:20;;;;;;;7.15;1.00;;;;;;;;;;5006786;28;20034;-59
2022/10/06 14:11:45;;;;;;;7.53;1.35;;;;;;;;;;5014332;28;20215;-69
2022/10/06 14:14:16;;;;;;;5.60;1.20;;;;;;;;;;5013824;28;20462;-61
2022/10/06 14:16:47;;;;;;;5.40;0.95;;;;;;;;;;5012496;28;20066;-60
2022/10/06 14:19:33;;;;;;;2.72;1.10;;;;;;;;;;5010432;28;20042;-60
2022/10/06 14:21:59;;;;;;;2.58;1.10;;;;;;;;;;5002841;28;20042;-60
2022/10/06 14:24:32;;;;;;;4.30;1.23;;;;;;;;;;5012150;28;20041;-60
2022/10/06 14:27:03;;;;;;;4.95;0.98;;;;;;;;;;4999969;28;20033;-60
2022/10/06 14:29:30;;;;;;;3.33;1.05;;;;;;;;;;5010160;28;20042;-60
2022/10/06 14:32:06;;;;;;;2.67;0.90;;;;;;;;;;5007981;28;20037;-60
2022/10/06 14:34:31;;;;;;;2.92;1.00;;;;;;;;;;5012568;28;20038;-61
2022/10/06 14:36:57;;;;;;;2.83;1.00;;;;;;;;;;5012262;28;20971;-60
2022/10/06 14:39:22;;;;;;;2.17;0.85;;;;;;;;;;5011838;28;20029;-60
2022/10/06 14:41:47;;;;;;;2.60;1.05;;;;;;;;;;5001109;28;20474;-60
2022/10/06 14:44:14;;;;;;;3.42;1.00;;;;;;;;;;4993058;28;20474;-60
2022/10/06 14:46:41;;;;;;;2.60;0.88;;;;;;;;;;5007246;28;20029;-60
2022/10/06 14:49:08;;;;;;;3.00;1.00;;;;;;;;;;5011517;28;20060;-60
2022/10/06 14:51:35;;;;;;;2.20;0.90;;;;;;;;;;5011175;28;20030;-61
2022/10/06 14:54:02;;;;;;;3.92;1.23;;;;;;;;;;5012765;28;20025;-61
2022/10/06 14:56:30;;;;;;;4.05;1.15;;;;;;;;;;5015830;28;20040;-60
2022/10/06 14:58:59;;;;;;;8.02;1.08;;;;;;;;;;5000481;28;20176;-71
2022/10/06 15:01:25;;;;;;;11.38;2.08;;;;;;;;;;5012839;28;20049;-61
2022/10/06 15:03:55;;;;;;;4.97;1.10;;;;;;;;;;5011016;28;20042;-60
2022/10/06 15:09:05;;;;;;;1.75;0.80;;;;;;;;;;5011212;28;20048;-60
2022/10/06 15:11:31;;;;;;;3.58;1.02;;;;;;;;;;5011616;28;20038;-61
2022/10/06 15:13:57;;;;;;;3.25;0.90;;;;;;;;;;5011361;28;20025;-60
2022/10/06 15:16:25;;;;;;;3.88;0.80;;;;;;;;;;5010616;28;20026;-60
2022/10/06 15:18:50;;;;;;;3.20;1.17;;;;;;;;;;5010911;28;20490;-61
2022/10/06 15:21:17;;;;;;;3.63;0.95;;;;;;;;;;5010967;28;20033;-61